createdAt,value
2018-08-03T00:01:59.444Z,17.47
2018-08-03T00:04:27.650Z,15.63
2018-08-03T00:06:55.881Z,18.67
2018-08-03T00:09:23.856Z,16.67
2018-08-03T00:11:51.818Z,16.17
2018-08-03T00:14:19.803Z,16.47
2018-08-03T00:16:48.017Z,18.93
2018-08-03T00:19:16.201Z,19.37
2018-08-03T00:21:44.385Z,16.87
2018-08-03T00:24:12.552Z,16.47
2018-08-03T00:26:40.728Z,16.20
2018-08-03T00:29:08.955Z,17.00
2018-08-03T00:31:37.187Z,14.90
2018-08-03T00:34:05.445Z,16.93
2018-08-03T00:36:33.673Z,17.20
2018-08-03T00:39:01.871Z,17.90
2018-08-03T00:41:30.069Z,15.63
2018-08-03T00:43:58.256Z,15.60
2018-08-03T00:46:26.464Z,16.83
2018-08-03T00:48:54.680Z,17.63
2018-08-03T00:51:22.938Z,16.33
2018-08-03T00:53:51.137Z,15.87
2018-08-03T00:56:19.378Z,16.17
2018-08-03T00:58:47.592Z,17.33
2018-08-03T01:01:15.827Z,17.10
2018-08-03T01:03:43.974Z,15.50
2018-08-03T01:06:12.181Z,17.60
2018-08-03T01:08:40.356Z,16.50
2018-08-03T01:11:08.501Z,17.97
2018-08-03T01:13:36.683Z,15.83
2018-08-03T01:16:04.820Z,17.70
2018-08-03T01:18:32.977Z,16.90
2018-08-03T01:21:01.206Z,16.53
2018-08-03T01:23:29.667Z,16.83
2018-08-03T01:25:57.809Z,17.47
2018-08-03T01:28:25.995Z,17.30
2018-08-03T01:30:54.202Z,16.33
2018-08-03T01:33:23.033Z,15.70
2018-08-03T01:35:51.285Z,16.67
2018-08-03T01:38:19.441Z,15.77
2018-08-03T01:40:47.648Z,16.30
2018-08-03T01:43:15.865Z,19.83
2018-08-03T01:45:44.021Z,16.50
2018-08-03T01:48:12.262Z,16.20
2018-08-03T01:50:40.608Z,16.80
2018-08-03T01:53:08.796Z,15.73
2018-08-03T01:55:36.993Z,15.53
2018-08-03T01:58:05.356Z,15.93
2018-08-03T02:00:33.480Z,16.20
2018-08-03T02:03:01.854Z,17.43
2018-08-03T02:05:30.032Z,16.80
2018-08-03T02:07:58.201Z,16.47
2018-08-03T02:10:26.362Z,17.23
2018-08-03T02:12:54.555Z,15.83
2018-08-03T02:15:22.771Z,16.90
2018-08-03T02:17:51.004Z,19.07
2018-08-03T02:20:19.232Z,16.37
2018-08-03T02:22:47.606Z,16.60
2018-08-03T02:25:15.837Z,18.07
2018-08-03T02:27:44.056Z,17.67
2018-08-03T02:30:12.249Z,16.60
2018-08-03T02:32:40.504Z,16.70
2018-08-03T02:35:08.726Z,16.33
2018-08-03T02:37:36.985Z,17.33
2018-08-03T02:40:05.301Z,15.97
2018-08-03T02:42:33.537Z,17.70
2018-08-03T02:45:01.861Z,16.00
2018-08-03T02:47:30.095Z,18.00
2018-08-03T02:49:58.351Z,16.87
2018-08-03T02:52:26.536Z,16.00
2018-08-03T02:54:54.789Z,18.57
2018-08-03T02:57:22.971Z,17.17
2018-08-03T02:59:51.254Z,16.10
2018-08-03T03:02:19.526Z,16.10
2018-08-03T03:04:47.746Z,17.33
2018-08-03T03:07:15.956Z,16.97
2018-08-03T03:09:44.204Z,16.93
2018-08-03T03:12:12.401Z,17.03
2018-08-03T03:14:40.635Z,17.20
2018-08-03T03:17:08.944Z,16.47
2018-08-03T03:19:37.149Z,16.30
2018-08-03T03:22:05.366Z,17.17
2018-08-03T03:24:33.626Z,16.50
2018-08-03T03:27:01.893Z,18.57
2018-08-03T03:29:30.146Z,16.93
2018-08-03T03:31:58.361Z,18.00
2018-08-03T03:34:26.354Z,16.63
2018-08-03T03:36:54.564Z,17.40
2018-08-03T03:39:22.810Z,15.50
2018-08-03T03:41:51.032Z,18.37
2018-08-03T03:44:19.358Z,19.00
2018-08-03T03:46:47.667Z,17.07
2018-08-03T03:49:15.919Z,17.97
2018-08-03T03:51:44.137Z,17.37
2018-08-03T03:54:12.393Z,18.60
2018-08-03T03:56:40.584Z,23.57
2018-08-03T03:59:08.774Z,17.47
2018-08-03T04:01:37.031Z,17.30
2018-08-03T04:04:05.260Z,16.87
2018-08-03T04:06:33.628Z,16.70
2018-08-03T04:09:01.893Z,16.60
2018-08-03T04:11:30.226Z,16.33
2018-08-03T04:13:58.484Z,16.13
2018-08-03T04:16:26.707Z,16.30
2018-08-03T04:18:55.336Z,16.17
2018-08-03T04:21:23.673Z,17.07
2018-08-03T04:23:51.940Z,18.57
2018-08-03T04:26:20.844Z,16.43
2018-08-03T04:28:49.074Z,16.77
2018-08-03T04:31:17.832Z,17.17
2018-08-03T04:33:49.972Z,17.90
2018-08-03T04:36:18.276Z,17.83
2018-08-03T04:38:46.668Z,17.40
2018-08-03T04:41:14.922Z,17.50
2018-08-03T04:43:44.653Z,17.93
2018-08-03T04:46:13.856Z,17.47
2018-08-03T04:48:42.164Z,16.87
2018-08-03T04:51:10.361Z,15.90
2018-08-03T04:53:38.622Z,18.00
2018-08-03T04:56:06.835Z,17.30
2018-08-03T04:58:35.042Z,17.27
2018-08-03T05:01:03.858Z,17.43
2018-08-03T05:03:32.176Z,16.83
2018-08-03T05:06:00.392Z,16.20
2018-08-03T05:08:28.529Z,16.00
2018-08-03T05:10:56.706Z,15.97
2018-08-03T05:13:24.856Z,17.20
2018-08-03T05:15:53.016Z,16.80
2018-08-03T05:18:20.931Z,16.90
2018-08-03T05:20:49.092Z,17.87
2018-08-03T05:23:17.401Z,16.33
2018-08-03T05:25:45.560Z,17.40
2018-08-03T05:28:13.742Z,17.83
2018-08-03T05:30:41.910Z,18.23
2018-08-03T05:33:10.097Z,18.10
2018-08-03T05:35:38.321Z,19.33
2018-08-03T05:38:06.484Z,17.90
2018-08-03T05:40:34.659Z,16.40
2018-08-03T05:43:02.844Z,16.97
2018-08-03T05:45:31.023Z,19.10
2018-08-03T05:47:59.158Z,16.57
2018-08-03T05:50:27.502Z,17.43
2018-08-03T05:52:55.672Z,20.63
2018-08-03T05:55:23.848Z,16.30
2018-08-03T05:57:52.046Z,16.17
2018-08-03T06:00:20.204Z,14.23
2018-08-03T06:02:48.461Z,16.77
2018-08-03T06:05:16.620Z,15.90
2018-08-03T06:07:44.790Z,15.10
2018-08-03T06:10:12.960Z,16.20
2018-08-03T06:12:41.136Z,14.83
2018-08-03T06:15:10.298Z,14.53
2018-08-03T06:17:38.886Z,14.07
2018-08-03T06:20:08.445Z,13.90
2018-08-03T06:22:36.603Z,13.33
2018-08-03T06:25:05.821Z,14.97
2018-08-03T06:27:33.991Z,13.30
2018-08-03T06:30:02.196Z,19.17
2018-08-03T06:32:30.114Z,14.13
2018-08-03T06:34:58.270Z,14.37
2018-08-03T06:37:26.409Z,17.60
2018-08-03T06:39:54.566Z,16.27
2018-08-03T06:42:22.726Z,14.37
2018-08-03T06:44:50.868Z,13.83
2018-08-03T06:47:19.039Z,15.40
2018-08-03T06:49:47.230Z,14.70
2018-08-03T06:52:15.397Z,15.17
2018-08-03T06:54:43.549Z,15.00
2018-08-03T06:57:11.723Z,15.93
2018-08-03T06:59:39.872Z,14.57
2018-08-03T07:02:08.017Z,14.57
2018-08-03T07:04:36.182Z,15.77
2018-08-03T07:07:04.316Z,14.23
2018-08-03T07:09:32.486Z,14.03
2018-08-03T07:12:00.625Z,16.93
2018-08-03T07:14:28.808Z,14.80
2018-08-03T07:16:56.930Z,15.93
2018-08-03T07:19:25.128Z,14.27
2018-08-03T07:21:53.285Z,15.33
2018-08-03T07:24:21.446Z,16.33
2018-08-03T07:26:49.609Z,14.43
2018-08-03T07:29:17.794Z,13.70
2018-08-03T07:31:45.978Z,16.13
2018-08-03T07:34:14.183Z,15.80
2018-08-03T07:36:42.356Z,14.17
2018-08-03T07:39:10.577Z,15.63
2018-08-03T07:41:38.755Z,16.60
2018-08-03T07:44:06.917Z,13.57
2018-08-03T07:46:35.079Z,14.10
2018-08-03T07:49:03.259Z,13.53
2018-08-03T07:51:31.441Z,13.07
2018-08-03T07:53:59.617Z,13.37
2018-08-03T07:56:27.791Z,11.67
2018-08-03T07:58:55.964Z,12.73
2018-08-03T08:01:24.137Z,11.70
2018-08-03T08:03:52.433Z,12.63
2018-08-03T08:06:20.400Z,13.50
2018-08-03T08:08:48.557Z,12.67
2018-08-03T08:11:16.747Z,15.20
2018-08-03T08:13:44.921Z,12.27
2018-08-03T08:16:13.112Z,13.20
2018-08-03T08:18:41.334Z,14.57
2018-08-03T08:21:09.512Z,14.00
2018-08-03T08:23:37.730Z,13.27
2018-08-03T08:26:06.027Z,11.87
2018-08-03T08:28:34.156Z,11.43
2018-08-03T08:31:02.314Z,12.93
2018-08-03T08:33:30.453Z,15.20
2018-08-03T08:35:58.622Z,14.00
2018-08-03T08:38:26.790Z,14.10
2018-08-03T08:40:54.941Z,13.07
2018-08-03T08:43:23.170Z,13.53
2018-08-03T08:45:51.296Z,13.00
2018-08-03T08:48:19.443Z,14.60
2018-08-03T08:50:47.600Z,14.50
2018-08-03T08:53:15.854Z,14.03
2018-08-03T08:55:43.909Z,12.80
2018-08-03T08:58:12.054Z,13.13
2018-08-03T09:00:40.204Z,12.97
2018-08-03T09:03:08.367Z,14.47
2018-08-03T09:05:36.529Z,14.50
2018-08-03T09:08:04.688Z,13.67
2018-08-03T09:10:32.833Z,13.60
2018-08-03T09:13:00.991Z,13.90
2018-08-03T09:15:29.140Z,13.00
2018-08-03T09:17:57.291Z,12.60
2018-08-03T09:20:25.428Z,13.00
2018-08-03T09:22:53.565Z,12.70
2018-08-03T09:25:21.741Z,14.10
2018-08-03T09:27:50.039Z,13.70
2018-08-03T09:30:18.202Z,14.00
2018-08-03T09:32:46.352Z,14.00
2018-08-03T09:35:14.504Z,14.17
2018-08-03T09:37:42.690Z,12.50
2018-08-03T09:40:10.854Z,13.13
2018-08-03T09:42:39.023Z,12.53
2018-08-03T09:45:07.249Z,12.97
2018-08-03T09:47:35.412Z,12.33
2018-08-03T09:50:03.592Z,12.77
2018-08-03T09:52:31.730Z,11.67
2018-08-03T09:54:59.898Z,12.20
2018-08-03T09:57:28.057Z,12.17
2018-08-03T09:59:56.204Z,12.17
2018-08-03T10:02:24.131Z,11.20
2018-08-03T10:04:52.886Z,12.03
2018-08-03T10:07:21.095Z,11.10
2018-08-03T10:09:49.199Z,11.47
2018-08-03T10:12:17.352Z,10.87
2018-08-03T10:14:45.508Z,12.60
2018-08-03T10:17:13.665Z,11.03
2018-08-03T10:19:41.800Z,11.40
2018-08-03T10:22:09.953Z,10.50
2018-08-03T10:24:38.150Z,9.73
2018-08-03T10:27:06.490Z,10.47
2018-08-03T10:29:34.686Z,11.47
2018-08-03T10:32:02.798Z,10.60
2018-08-03T10:34:30.941Z,11.00
2018-08-03T10:36:59.117Z,10.90
2018-08-03T10:39:27.256Z,10.17
2018-08-03T10:41:55.419Z,10.20
2018-08-03T10:44:23.575Z,10.57
2018-08-03T10:46:51.729Z,11.30
2018-08-03T10:49:19.890Z,10.20
2018-08-03T10:51:48.023Z,10.80
2018-08-03T10:54:16.161Z,10.93
2018-08-03T10:56:44.300Z,11.00
2018-08-03T10:59:12.441Z,10.83
2018-08-03T11:01:40.618Z,9.70
2018-08-03T11:04:08.752Z,10.13
2018-08-03T11:06:36.914Z,10.53
2018-08-03T11:09:07.253Z,10.97
2018-08-03T11:11:35.508Z,11.47
2018-08-03T11:14:03.675Z,10.33
2018-08-03T11:16:32.125Z,9.47
2018-08-03T11:19:00.272Z,10.03
2018-08-03T11:21:28.425Z,10.63
2018-08-03T11:23:56.574Z,10.63
2018-08-03T11:26:24.765Z,11.93
2018-08-03T11:28:52.893Z,10.33
2018-08-03T11:31:21.078Z,10.30
2018-08-03T11:33:49.221Z,9.90
2018-08-03T11:36:17.390Z,9.33
2018-08-03T11:38:45.514Z,9.80
2018-08-03T11:41:13.645Z,10.10
2018-08-03T11:43:41.901Z,11.67
2018-08-03T11:46:10.157Z,9.40
2018-08-03T11:48:38.306Z,9.07
2018-08-03T11:51:06.749Z,9.80
2018-08-03T11:53:34.925Z,11.03
2018-08-03T11:56:02.862Z,10.37
2018-08-03T11:58:31.019Z,10.23
2018-08-03T12:00:59.146Z,10.87
2018-08-03T12:03:27.284Z,9.70
2018-08-03T12:05:55.432Z,10.67
2018-08-03T12:08:23.582Z,11.77
2018-08-03T12:10:51.736Z,9.10
2018-08-03T12:13:19.893Z,10.20
2018-08-03T12:15:48.048Z,9.80
2018-08-03T12:18:16.185Z,10.60
2018-08-03T12:20:45.945Z,9.57
2018-08-03T12:23:14.321Z,10.10
2018-08-03T12:25:42.901Z,10.00
2018-08-03T12:28:12.109Z,10.00
2018-08-03T12:30:40.570Z,10.23
2018-08-03T12:33:10.268Z,10.73
2018-08-03T12:35:38.455Z,9.80
2018-08-03T12:38:06.427Z,9.67
2018-08-03T12:40:34.604Z,9.57
2018-08-03T12:43:02.786Z,9.07
2018-08-03T12:45:34.145Z,11.67
2018-08-03T12:48:00.692Z,9.73
2018-08-03T12:50:28.970Z,11.40
2018-08-03T12:52:57.926Z,8.90
2018-08-03T12:55:26.155Z,9.03
2018-08-03T12:57:54.385Z,11.40
2018-08-03T13:00:23.568Z,9.90
2018-08-03T13:02:51.736Z,9.63
2018-08-03T13:05:21.789Z,11.70
2018-08-03T13:07:50.071Z,14.53
2018-08-03T13:10:18.123Z,9.47
2018-08-03T13:12:46.257Z,10.73
2018-08-03T13:15:14.405Z,10.33
2018-08-03T13:17:42.537Z,9.23
2018-08-03T13:20:10.669Z,8.60
2018-08-03T13:22:38.784Z,9.53
2018-08-03T13:25:07.025Z,10.73
2018-08-03T13:27:35.177Z,11.40
2018-08-03T13:30:03.366Z,9.87
2018-08-03T13:32:31.629Z,8.60
2018-08-03T13:34:59.829Z,10.57
2018-08-03T13:37:28.204Z,10.13
2018-08-03T13:39:56.361Z,11.20
2018-08-03T13:42:24.487Z,9.50
2018-08-03T13:44:52.619Z,9.10
2018-08-03T13:47:20.792Z,9.97
2018-08-03T13:49:48.941Z,10.00
2018-08-03T13:52:17.106Z,9.10
2018-08-03T13:54:45.352Z,10.50
2018-08-03T13:57:13.521Z,9.70
2018-08-03T13:59:41.641Z,9.50
2018-08-03T14:02:24.707Z,9.27
2018-08-03T14:04:53.509Z,10.53
2018-08-03T14:07:21.757Z,8.90
2018-08-03T14:09:49.897Z,9.20
2018-08-03T14:12:18.179Z,10.00
2018-08-03T14:14:46.289Z,10.13
2018-08-03T14:17:14.441Z,10.30
2018-08-03T14:19:42.783Z,9.20
2018-08-03T14:22:11.020Z,11.23
2018-08-03T14:24:39.162Z,9.83
2018-08-03T14:27:07.401Z,11.90
2018-08-03T14:29:35.577Z,9.50
2018-08-03T14:32:04.525Z,8.87
2018-08-03T14:34:32.689Z,9.30
2018-08-03T14:37:00.848Z,9.43
2018-08-03T14:39:29.004Z,9.70
2018-08-03T14:41:57.153Z,12.17
2018-08-03T14:44:25.285Z,8.57
2018-08-03T14:46:53.449Z,8.83
2018-08-03T14:49:21.622Z,9.03
2018-08-03T14:51:49.800Z,10.33
2018-08-03T14:54:17.950Z,8.77
2018-08-03T14:56:46.145Z,8.60
2018-08-03T14:59:14.249Z,9.83
2018-08-03T15:01:42.402Z,9.23
2018-08-03T15:04:10.611Z,9.37
2018-08-03T15:06:38.752Z,10.23
2018-08-03T15:09:08.141Z,9.40
2018-08-03T15:11:36.299Z,9.37
2018-08-03T15:14:04.648Z,12.60
2018-08-03T15:16:32.479Z,9.53
2018-08-03T15:19:00.640Z,8.70
2018-08-03T15:21:28.918Z,8.97
2018-08-03T15:23:57.091Z,10.03
2018-08-03T15:26:25.246Z,10.13
2018-08-03T15:28:53.405Z,9.20
2018-08-03T15:31:21.508Z,9.53
2018-08-03T15:33:49.427Z,9.67
2018-08-03T15:36:17.581Z,10.17
2018-08-03T15:38:45.723Z,11.03
2018-08-03T15:41:13.874Z,9.37
2018-08-03T15:43:42.023Z,9.87
2018-08-03T15:46:10.174Z,9.20
2018-08-03T15:48:38.307Z,8.90
2018-08-03T15:51:06.444Z,10.80
2018-08-03T15:53:34.588Z,10.50
2018-08-03T15:56:02.724Z,8.60
2018-08-03T15:58:30.873Z,9.53
2018-08-03T16:00:59.032Z,10.00
2018-08-03T16:03:27.176Z,10.03
2018-08-03T16:05:55.373Z,9.67
2018-08-03T16:08:23.498Z,9.37
2018-08-03T16:10:51.646Z,12.67
2018-08-03T16:13:19.818Z,9.80
2018-08-03T16:15:47.989Z,9.83
2018-08-03T16:18:16.136Z,9.60
2018-08-03T16:20:44.269Z,9.43
2018-08-03T16:23:12.407Z,9.90
2018-08-03T16:25:40.611Z,9.37
2018-08-03T16:28:08.731Z,9.30
2018-08-03T16:30:36.861Z,10.53
2018-08-03T16:33:04.989Z,9.47
2018-08-03T16:35:33.185Z,11.67
2018-08-03T16:38:01.310Z,8.90
2018-08-03T16:40:29.449Z,12.50
2018-08-03T16:42:57.589Z,8.20
2018-08-03T16:45:25.746Z,8.90
2018-08-03T16:47:53.892Z,9.50
2018-08-03T16:50:22.012Z,9.97
2018-08-03T16:52:50.234Z,9.67
2018-08-03T16:55:18.384Z,9.77
2018-08-03T16:57:46.517Z,9.07
2018-08-03T17:00:17.490Z,8.33
2018-08-03T17:02:45.863Z,8.30
2018-08-03T17:05:13.829Z,9.90
2018-08-03T17:07:41.973Z,9.30
2018-08-03T17:10:10.156Z,8.93
2018-08-03T17:12:38.457Z,9.40
2018-08-03T17:15:06.609Z,8.47
2018-08-03T17:17:34.780Z,8.43
2018-08-03T17:20:02.919Z,10.43
2018-08-03T17:22:31.079Z,12.67
2018-08-03T17:24:59.215Z,8.73
2018-08-03T17:27:27.362Z,10.73
2018-08-03T17:29:55.487Z,8.77
2018-08-03T17:32:23.665Z,8.20
2018-08-03T17:34:51.793Z,8.80
2018-08-03T17:37:19.932Z,9.23
2018-08-03T17:39:48.085Z,8.53
2018-08-03T17:42:16.228Z,9.77
2018-08-03T17:44:44.397Z,9.73
2018-08-03T17:47:12.550Z,9.60
2018-08-03T17:49:40.767Z,8.97
2018-08-03T17:52:08.908Z,9.43
2018-08-03T17:54:37.090Z,9.63
2018-08-03T17:57:05.244Z,8.63
2018-08-03T17:59:33.364Z,9.57
2018-08-03T18:02:01.517Z,9.53
2018-08-03T18:04:29.664Z,9.17
2018-08-03T18:06:57.809Z,14.30
2018-08-03T18:09:26.084Z,9.10
2018-08-03T18:11:54.156Z,8.40
2018-08-03T18:14:22.281Z,11.30
2018-08-03T18:16:50.434Z,10.13
2018-08-03T18:19:19.442Z,10.07
2018-08-03T18:21:47.587Z,10.67
2018-08-03T18:24:15.686Z,9.50
2018-08-03T18:26:43.837Z,11.80
2018-08-03T18:29:12.065Z,11.13
2018-08-03T18:31:40.154Z,10.83
2018-08-03T18:34:08.310Z,11.00
2018-08-03T18:36:36.441Z,10.77
2018-08-03T18:39:06.933Z,10.67
2018-08-03T18:41:35.082Z,11.83
2018-08-03T18:44:03.214Z,10.50
2018-08-03T18:46:31.127Z,11.47
2018-08-03T18:48:59.257Z,11.70
2018-08-03T18:51:27.406Z,12.13
2018-08-03T18:53:55.555Z,13.83
2018-08-03T18:56:23.726Z,12.80
2018-08-03T18:58:51.907Z,11.33
2018-08-03T19:01:20.055Z,11.73
2018-08-03T19:03:48.188Z,12.63
2018-08-03T19:06:16.334Z,13.47
2018-08-03T19:08:44.506Z,12.40
2018-08-03T19:11:12.645Z,17.33
2018-08-03T19:13:40.846Z,12.33
2018-08-03T19:16:08.993Z,11.87
2018-08-03T19:18:37.464Z,12.80
2018-08-03T19:21:05.668Z,16.10
2018-08-03T19:23:33.834Z,13.43
2018-08-03T19:26:01.965Z,12.27
2018-08-03T19:28:30.216Z,13.73
2018-08-03T19:30:58.413Z,11.97
2018-08-03T19:33:26.629Z,13.10
2018-08-03T19:35:54.794Z,12.03
2018-08-03T19:38:23.012Z,12.13
2018-08-03T19:40:51.173Z,13.37
2018-08-03T19:43:19.352Z,12.97
2018-08-03T19:45:47.537Z,12.07
2018-08-03T19:48:15.706Z,12.60
2018-08-03T19:50:43.877Z,12.90
2018-08-03T19:53:12.070Z,12.63
2018-08-03T19:55:40.021Z,11.83
2018-08-03T19:58:08.188Z,11.80
2018-08-03T20:00:36.397Z,14.33
2018-08-03T20:03:04.536Z,11.80
2018-08-03T20:05:32.765Z,10.97
2018-08-03T20:08:00.989Z,13.43
2018-08-03T20:10:29.165Z,14.70
2018-08-03T20:12:57.337Z,12.30
2018-08-03T20:15:25.504Z,11.83
2018-08-03T20:17:53.645Z,11.93
2018-08-03T20:20:21.849Z,13.87
2018-08-03T20:22:50.133Z,12.77
2018-08-03T20:25:18.411Z,18.80
2018-08-03T20:27:46.621Z,11.37
2018-08-03T20:30:14.820Z,13.27
2018-08-03T20:32:43.178Z,14.23
2018-08-03T20:35:11.331Z,13.00
2018-08-03T20:37:39.501Z,14.43
2018-08-03T20:40:08.214Z,13.33
2018-08-03T20:42:36.381Z,12.37
2018-08-03T20:45:05.154Z,12.03
2018-08-03T20:47:33.434Z,12.17
2018-08-03T20:50:01.630Z,13.00
2018-08-03T20:52:30.088Z,12.47
2018-08-03T20:54:58.339Z,11.90
2018-08-03T20:57:26.521Z,16.57
2018-08-03T20:59:54.744Z,13.73
2018-08-03T21:02:23.157Z,15.63
2018-08-03T21:04:51.438Z,14.33
2018-08-03T21:07:19.625Z,13.90
2018-08-03T21:09:48.173Z,13.30
2018-08-03T21:12:17.195Z,12.20
2018-08-03T21:14:46.428Z,13.10
2018-08-03T21:17:14.621Z,12.50
2018-08-03T21:19:42.977Z,11.73
2018-08-03T21:22:11.537Z,16.40
2018-08-03T21:24:39.882Z,12.43
2018-08-03T21:27:08.131Z,12.87
2018-08-03T21:29:36.987Z,12.50
2018-08-03T21:32:05.284Z,12.43
2018-08-03T21:34:33.428Z,13.40
2018-08-03T21:37:01.721Z,13.07
2018-08-03T21:39:30.047Z,13.00
2018-08-03T21:41:58.297Z,14.33
2018-08-03T21:44:26.490Z,13.13
2018-08-03T21:46:54.788Z,14.00
2018-08-03T21:49:22.952Z,13.63
2018-08-03T21:51:51.145Z,12.50
2018-08-03T21:54:19.504Z,13.03
2018-08-03T21:56:47.765Z,12.83
2018-08-03T21:59:15.947Z,13.03
2018-08-03T22:01:44.134Z,14.80
2018-08-03T22:04:12.395Z,13.70
2018-08-03T22:06:40.585Z,14.03
2018-08-03T22:09:09.592Z,12.27
2018-08-03T22:11:37.801Z,12.90
2018-08-03T22:14:06.116Z,13.30
2018-08-03T22:16:34.307Z,13.67
2018-08-03T22:19:02.492Z,13.43
2018-08-03T22:21:30.720Z,12.57
2018-08-03T22:23:58.940Z,12.90
2018-08-03T22:26:27.168Z,13.40
2018-08-03T22:28:55.383Z,14.70
2018-08-03T22:31:23.616Z,13.27
2018-08-03T22:33:51.828Z,13.10
2018-08-03T22:36:20.067Z,14.80
2018-08-03T22:38:48.272Z,13.90
2018-08-03T22:41:16.495Z,13.07
2018-08-03T22:43:44.707Z,14.37
2018-08-03T22:46:12.974Z,13.60
2018-08-03T22:48:41.209Z,13.27
2018-08-03T22:51:09.380Z,13.03
2018-08-03T22:53:37.564Z,12.90
2018-08-03T22:56:05.976Z,13.97
2018-08-03T22:58:36.871Z,13.40
2018-08-03T23:01:05.125Z,13.97
2018-08-03T23:03:33.224Z,13.20
2018-08-03T23:06:01.440Z,14.57
2018-08-03T23:08:29.722Z,17.00
2018-08-03T23:10:57.954Z,12.90
2018-08-03T23:13:26.162Z,14.30
2018-08-03T23:15:54.345Z,13.30
2018-08-03T23:18:22.631Z,12.57
2018-08-03T23:20:50.950Z,13.87
2018-08-03T23:23:19.163Z,14.00
2018-08-03T23:25:47.413Z,15.03
2018-08-03T23:28:15.624Z,15.30
2018-08-03T23:30:43.812Z,12.70
2018-08-03T23:33:12.094Z,13.67
2018-08-03T23:35:40.285Z,13.70
2018-08-03T23:38:08.514Z,14.50
2018-08-03T23:40:36.453Z,14.37
2018-08-03T23:43:04.674Z,13.50
2018-08-03T23:45:32.833Z,15.50
2018-08-03T23:48:02.203Z,14.20
2018-08-03T23:50:30.497Z,13.50
2018-08-03T23:52:58.843Z,13.70
2018-08-03T23:55:27.203Z,15.07
2018-08-03T23:57:55.429Z,14.93
